Time;durP1;ratioP1;P1;durP2;ratioP2;P2;SDS_P1;SDS_P2;PMS_P1;PMS_P2;Temp;Humidity;BMP_temperature;BMP_pressure;BME280_temperature;BME280_humidity;BME280_pressure;Samples;Min_cycle;Max_cycle;Signal;HPM_P1;HPM_P2
2023/12/18 00:00:10;;;;;;;27.10;9.30;;;-2.90;99.90;;;;;;4960548;29;20051;-76
2023/12/18 00:02:36;;;;;;;20.17;9.95;;;-2.90;99.90;;;;;;4958912;29;20039;-75
2023/12/18 00:05:01;;;;;;;19.02;9.07;;;-2.70;99.90;;;;;;4960987;29;20023;-75
2023/12/18 00:07:27;;;;;;;25.30;9.85;;;-1.90;99.90;;;;;;4960777;29;20070;-75
2023/12/18 00:09:53;;;;;;;19.83;8.93;;;-2.60;99.90;;;;;;4943414;29;20020;-75
2023/12/18 00:12:18;;;;;;;16.20;8.38;;;-2.50;99.90;;;;;;4956267;28;20088;-75
2023/12/18 00:14:44;;;;;;;23.13;8.93;;;-2.40;99.90;;;;;;4960629;28;20023;-75
2023/12/18 00:17:10;;;;;;;27.50;10.18;;;-2.40;99.90;;;;;;4960707;28;20020;-76
2023/12/18 00:19:35;;;;;;;19.10;9.02;;;-2.40;99.90;;;;;;4960821;28;20099;-75
2023/12/18 00:22:01;;;;;;;19.77;9.73;;;-2.50;99.90;;;;;;4961028;28;20090;-76
2023/12/18 00:24:27;;;;;;;23.40;10.65;;;-2.50;99.90;;;;;;4960451;28;20315;-75
2023/12/18 00:26:52;;;;;;;19.23;8.57;;;-2.60;99.90;;;;;;4960008;28;20034;-75
2023/12/18 00:29:18;;;;;;;22.52;9.27;;;-2.50;99.90;;;;;;4960327;28;20031;-75
2023/12/18 00:31:43;;;;;;;20.15;9.05;;;-2.40;99.90;;;;;;4960776;28;20023;-75
2023/12/18 00:34:09;;;;;;;19.10;9.00;;;-2.30;99.90;;;;;;4964160;28;20035;-75
2023/12/18 00:36:35;;;;;;;25.77;9.05;;;-2.40;99.90;;;;;;4946837;29;20202;-75
2023/12/18 00:39:00;;;;;;;20.75;9.23;;;-2.40;99.90;;;;;;4963900;28;20275;-75
2023/12/18 00:41:26;;;;;;;22.75;9.77;;;-2.40;99.90;;;;;;4963369;28;20039;-75
2023/12/18 00:43:51;;;;;;;20.33;8.73;;;-2.50;99.90;;;;;;4946198;28;20027;-76
2023/12/18 00:46:17;;;;;;;22.10;9.63;;;-2.50;99.90;;;;;;4963903;28;20026;-75
2023/12/18 00:48:43;;;;;;;19.85;9.77;;;-2.50;99.90;;;;;;4963583;28;20042;-76
2023/12/18 00:51:11;;;;;;;21.67;9.30;;;-2.40;99.90;;;;;;4946843;28;20027;-75
2023/12/18 00:53:37;;;;;;;20.48;9.75;;;-2.60;99.90;;;;;;4982452;28;20097;-76
2023/12/18 00:56:03;;;;;;;22.60;10.93;;;-2.70;99.90;;;;;;4980166;28;20350;-76
2023/12/18 00:58:28;;;;;;;19.45;8.60;;;-2.80;99.90;;;;;;4982998;28;20023;-75
2023/12/18 01:00:54;;;;;;;18.38;9.13;;;-2.80;99.90;;;;;;4982436;28;20055;-76
2023/12/18 01:03:20;;;;;;;22.40;10.18;;;-2.90;99.90;;;;;;4975030;28;20471;-75
2023/12/18 01:05:45;;;;;;;20.63;9.82;;;-3.00;99.90;;;;;;4952507;29;20385;-75
2023/12/18 01:08:12;;;;;;;19.25;9.07;;;-3.00;99.90;;;;;;4936646;29;20400;-75
2023/12/18 01:10:38;;;;;;;22.02;8.60;;;-2.20;99.90;;;;;;4953279;29;20120;-75
2023/12/18 01:13:04;;;;;;;22.50;9.82;;;-2.40;99.90;;;;;;4948271;29;20032;-75
2023/12/18 01:15:29;;;;;;;24.27;10.07;;;-2.60;99.90;;;;;;4954086;29;20028;-75
2023/12/18 01:17:55;;;;;;;21.48;8.73;;;-2.60;99.90;;;;;;4953682;29;20035;-75
2023/12/18 01:20:20;;;;;;;18.88;8.73;;;-2.60;99.90;;;;;;4959597;28;20037;-77
2023/12/18 01:22:46;;;;;;;20.45;10.10;;;-2.70;99.90;;;;;;4955422;28;20096;-76
2023/12/18 01:25:12;;;;;;;20.45;9.07;;;-2.70;99.90;;;;;;4967582;28;20023;-75
2023/12/18 01:27:37;;;;;;;22.95;8.20;;;-2.80;99.90;;;;;;4953521;28;20171;-75
2023/12/18 01:30:04;;;;;;;21.67;8.45;;;-3.00;99.90;;;;;;4962710;28;20015;-76
2023/12/18 01:32:31;;;;;;;22.60;9.57;;;-3.00;99.90;;;;;;4972744;28;20018;-75
2023/12/18 01:34:57;;;;;;;22.38;10.48;;;-3.10;99.90;;;;;;4972665;28;20298;-76
2023/12/18 01:37:23;;;;;;;20.55;9.18;;;-3.10;99.90;;;;;;4972867;28;20498;-76
2023/12/18 01:39:48;;;;;;;18.05;8.05;;;-3.00;99.90;;;;;;4972407;28;20058;-76
2023/12/18 01:42:14;;;;;;;23.48;9.77;;;-3.00;99.90;;;;;;4972550;28;20027;-74
2023/12/18 01:44:40;;;;;;;20.58;8.05;;;-2.90;99.90;;;;;;4971720;28;20058;-77
2023/12/18 01:47:07;;;;;;;20.10;9.32;;;-2.80;99.90;;;;;;4972615;28;20042;-76
2023/12/18 01:49:33;;;;;;;22.38;8.75;;;-2.80;99.90;;;;;;4972644;28;20030;-76
2023/12/18 01:51:59;;;;;;;19.40;9.95;;;-2.00;99.90;;;;;;4966606;28;20019;-75
2023/12/18 01:54:26;;;;;;;20.17;8.73;;;-2.40;99.90;;;;;;4953004;28;20031;-74
2023/12/18 01:56:54;;;;;;;21.48;9.05;;;-3.00;99.90;;;;;;4952488;28;20032;-78
2023/12/18 01:59:21;;;;;;;18.13;8.05;;;-3.00;99.90;;;;;;4952660;28;20392;-76
2023/12/18 02:01:47;;;;;;;18.10;8.70;;;-3.00;99.90;;;;;;4952787;28;20198;-76
2023/12/18 02:04:14;;;;;;;21.92;9.40;;;-2.80;99.90;;;;;;4952768;28;20058;-74
2023/12/18 02:06:40;;;;;;;21.70;9.43;;;-2.90;99.90;;;;;;4935309;28;20032;-75
2023/12/18 02:09:06;;;;;;;21.83;9.45;;;-2.90;99.90;;;;;;4952704;28;20103;-76
2023/12/18 02:11:33;;;;;;;20.52;9.57;;;-3.00;99.90;;;;;;4951666;28;20098;-74
2023/12/18 02:13:58;;;;;;;22.63;9.43;;;-3.10;99.90;;;;;;4951803;28;20023;-75
2023/12/18 02:16:24;;;;;;;19.52;7.90;;;-2.90;99.90;;;;;;4952766;28;20038;-77
2023/12/18 02:18:50;;;;;;;20.70;9.07;;;-2.90;99.90;;;;;;4952296;28;20082;-75
2023/12/18 02:21:20;;;;;;;18.77;7.72;;;-2.80;99.90;;;;;;4934563;28;20082;-75
2023/12/18 02:23:47;;;;;;;23.95;7.88;;;-2.70;99.90;;;;;;4951869;28;20039;-73
2023/12/18 02:26:15;;;;;;;22.05;9.02;;;-2.70;99.90;;;;;;4934290;29;20056;-77
2023/12/18 02:28:41;;;;;;;27.42;9.23;;;-2.70;99.90;;;;;;4951342;28;20055;-76
2023/12/18 02:31:09;;;;;;;17.30;8.15;;;-2.70;99.90;;;;;;4951414;28;20023;-75
2023/12/18 02:33:35;;;;;;;19.73;9.18;;;-2.20;99.90;;;;;;4951575;28;20027;-74
2023/12/18 02:36:01;;;;;;;22.75;8.98;;;-2.60;99.90;;;;;;4934214;28;20031;-76
2023/12/18 02:38:27;;;;;;;20.38;8.85;;;-2.40;99.90;;;;;;4933933;28;20034;-77
2023/12/18 02:40:53;;;;;;;18.23;9.40;;;-2.40;99.90;;;;;;4933507;29;20031;-74
2023/12/18 02:43:18;;;;;;;18.13;9.05;;;-2.50;99.90;;;;;;4951210;28;20126;-76
2023/12/18 02:45:44;;;;;;;19.17;8.82;;;-2.60;99.90;;;;;;4934371;29;20031;-77
2023/12/18 02:48:09;;;;;;;19.40;9.23;;;-1.60;99.90;;;;;;4951960;28;20031;-75
2023/12/18 02:50:35;;;;;;;19.48;8.25;;;-2.80;99.90;;;;;;4951654;28;20027;-74
2023/12/18 02:53:01;;;;;;;16.80;7.20;;;-2.70;99.90;;;;;;4966208;28;20019;-77
2023/12/18 02:55:26;;;;;;;15.25;7.03;;;-2.70;99.90;;;;;;4970891;28;20031;-77
2023/12/18 02:57:52;;;;;;;17.15;8.63;;;-2.50;99.90;;;;;;4970836;28;20034;-76
2023/12/18 03:00:18;;;;;;;19.30;7.93;;;-1.80;99.90;;;;;;4970946;28;20054;-76
2023/12/18 03:02:44;;;;;;;17.35;8.35;;;-2.50;99.90;;;;;;4953177;28;20031;-77
2023/12/18 03:05:10;;;;;;;13.57;7.45;;;-2.60;99.90;;;;;;4953460;28;20026;-77
2023/12/18 03:07:36;;;;;;;17.23;7.28;;;-2.60;99.90;;;;;;4971043;28;20447;-76
2023/12/18 03:10:01;;;;;;;20.15;9.75;;;-2.60;99.90;;;;;;4970450;28;20038;-77
2023/12/18 03:12:27;;;;;;;21.52;8.48;;;-2.60;99.90;;;;;;4971046;28;20030;-77
2023/12/18 03:14:53;;;;;;;20.88;8.30;;;-2.70;99.90;;;;;;4970923;28;20555;-77
2023/12/18 03:17:18;;;;;;;21.98;10.98;;;-2.40;99.90;;;;;;4970852;28;20038;-77
2023/12/18 03:19:44;;;;;;;18.42;7.53;;;-2.00;99.90;;;;;;4970982;28;20022;-77
2023/12/18 03:22:09;;;;;;;17.95;8.32;;;-2.80;99.90;;;;;;4953333;28;20121;-77
2023/12/18 03:24:38;;;;;;;16.08;7.05;;;-2.80;99.90;;;;;;4969920;28;20026;-77
2023/12/18 03:27:04;;;;;;;14.80;7.30;;;-2.70;99.90;;;;;;4970729;28;20113;-77
2023/12/18 03:29:29;;;;;;;13.23;6.97;;;-2.70;99.90;;;;;;4970968;28;20118;-76
2023/12/18 03:31:55;;;;;;;16.95;8.25;;;-2.80;99.90;;;;;;4971027;28;20041;-76
2023/12/18 03:34:20;;;;;;;20.75;8.65;;;-1.80;99.90;;;;;;4970825;28;20053;-77
2023/12/18 03:36:46;;;;;;;19.30;7.38;;;-2.70;99.90;;;;;;4970345;28;20023;-76
2023/12/18 03:39:12;;;;;;;17.70;8.40;;;-2.80;99.90;;;;;;4970692;28;20050;-76
2023/12/18 03:41:37;;;;;;;15.90;6.97;;;-2.80;99.90;;;;;;4970262;28;20093;-77
2023/12/18 03:44:03;;;;;;;16.52;7.72;;;-2.90;99.90;;;;;;4970587;28;20027;-77
2023/12/18 03:46:29;;;;;;;18.60;7.30;;;-3.00;99.90;;;;;;4970548;28;20027;-76
2023/12/18 03:48:54;;;;;;;14.55;6.88;;;-3.00;99.90;;;;;;4953160;28;20510;-77
2023/12/18 03:51:20;;;;;;;20.10;9.13;;;-2.10;99.90;;;;;;4969574;28;20038;-76
2023/12/18 03:53:45;;;;;;;21.08;8.35;;;-2.80;99.90;;;;;;4951477;28;20020;-76
2023/12/18 03:56:11;;;;;;;22.45;8.02;;;-2.80;99.90;;;;;;4950901;28;20038;-76
2023/12/18 03:58:37;;;;;;;17.88;8.15;;;-2.80;99.90;;;;;;4951110;28;20135;-77
2023/12/18 04:01:03;;;;;;;16.38;7.32;;;-2.90;99.90;;;;;;4950794;28;20062;-77
2023/12/18 04:03:28;;;;;;;15.23;7.50;;;-3.10;99.90;;;;;;4951045;29;20488;-76
2023/12/18 04:05:54;;;;;;;18.75;8.35;;;-3.20;99.90;;;;;;4952413;28;20030;-75
2023/12/18 04:08:19;;;;;;;16.42;7.60;;;-2.60;99.90;;;;;;4953644;28;20035;-77
2023/12/18 04:10:45;;;;;;;24.67;8.32;;;-3.10;99.90;;;;;;4955897;28;20030;-76
2023/12/18 04:13:11;;;;;;;14.57;7.13;;;-3.40;99.90;;;;;;4964523;28;20019;-77
2023/12/18 04:15:36;;;;;;;17.58;7.70;;;-3.50;99.90;;;;;;4967046;28;21373;-77
2023/12/18 04:18:02;;;;;;;16.90;7.75;;;-3.40;99.90;;;;;;4947272;28;20550;-74
2023/12/18 04:20:28;;;;;;;17.00;7.53;;;-3.40;99.90;;;;;;4952665;28;20019;-77
2023/12/18 04:22:53;;;;;;;15.70;6.00;;;-3.40;99.90;;;;;;4974498;28;20293;-77
2023/12/18 04:25:19;;;;;;;12.75;6.00;;;-3.50;99.90;;;;;;4973789;28;20110;-77
2023/12/18 04:27:44;;;;;;;21.48;7.90;;;-3.50;99.90;;;;;;4973284;28;20058;-76
2023/12/18 04:30:11;;;;;;;16.00;7.93;;;-3.50;99.90;;;;;;4972588;28;20500;-75
2023/12/18 04:32:36;;;;;;;16.63;7.15;;;-3.50;99.90;;;;;;4972472;28;20035;-76
2023/12/18 04:35:03;;;;;;;18.30;7.57;;;-3.50;99.90;;;;;;4972824;28;20048;-75
2023/12/18 04:37:28;;;;;;;20.02;8.15;;;-3.50;99.90;;;;;;4972217;28;20099;-75
2023/12/18 04:39:54;;;;;;;17.30;6.72;;;-3.50;99.90;;;;;;4972543;28;20291;-74
2023/12/18 04:42:20;;;;;;;19.50;8.38;;;-3.40;99.90;;;;;;4955464;28;20039;-75
2023/12/18 04:44:45;;;;;;;17.58;7.38;;;-2.90;99.90;;;;;;4972108;28;20494;-76
2023/12/18 04:47:11;;;;;;;13.88;7.10;;;-3.40;99.90;;;;;;4972021;28;20041;-75
2023/12/18 04:49:37;;;;;;;20.40;8.65;;;-3.40;99.90;;;;;;4972322;28;20027;-76
2023/12/18 04:52:03;;;;;;;16.85;7.85;;;-3.40;99.90;;;;;;4965423;28;20030;-75
2023/12/18 04:54:28;;;;;;;18.92;7.80;;;-3.40;99.90;;;;;;4935003;29;20405;-76
2023/12/18 04:56:54;;;;;;;17.27;7.97;;;-3.50;99.90;;;;;;4935099;29;20127;-76
2023/12/18 04:59:20;;;;;;;21.33;8.48;;;-3.50;99.90;;;;;;4953207;28;20131;-75
2023/12/18 05:01:46;;;;;;;17.98;7.20;;;-3.50;99.90;;;;;;4936372;29;20027;-74
2023/12/18 05:04:11;;;;;;;16.02;7.38;;;-3.60;99.90;;;;;;4953818;28;20031;-75
2023/12/18 05:06:37;;;;;;;21.98;8.18;;;-3.40;99.90;;;;;;4953435;28;20031;-76
2023/12/18 05:09:03;;;;;;;13.35;6.43;;;-2.80;99.90;;;;;;4953280;29;20035;-74
2023/12/18 05:11:28;;;;;;;16.27;7.18;;;-3.20;99.90;;;;;;4935447;29;20166;-75
2023/12/18 05:13:54;;;;;;;10.95;6.50;;;-3.10;99.90;;;;;;4953539;28;20105;-74
2023/12/18 05:16:19;;;;;;;14.70;6.78;;;-2.80;99.90;;;;;;4953357;29;20027;-75
2023/12/18 05:18:45;;;;;;;18.23;7.63;;;-3.10;99.90;;;;;;4952695;28;20162;-75
2023/12/18 05:21:11;;;;;;;17.02;8.68;;;-2.70;99.90;;;;;;4953535;28;20058;-76
2023/12/18 05:23:38;;;;;;;17.33;7.43;;;-3.00;99.90;;;;;;4953393;29;20173;-75
2023/12/18 05:26:04;;;;;;;17.95;7.45;;;-3.10;99.90;;;;;;4952997;29;20032;-75
2023/12/18 05:28:29;;;;;;;14.50;7.38;;;-3.20;99.90;;;;;;4953129;29;20027;-76
2023/12/18 05:30:55;;;;;;;18.63;7.35;;;-3.30;99.90;;;;;;4953423;29;20148;-76
2023/12/18 05:33:21;;;;;;;17.90;7.65;;;-3.10;99.90;;;;;;4952988;29;20046;-75
2023/12/18 05:35:46;;;;;;;20.58;8.45;;;-3.10;99.90;;;;;;4936011;28;20038;-77
2023/12/18 05:38:12;;;;;;;18.40;8.25;;;-3.10;99.90;;;;;;4953406;29;20024;-75
2023/12/18 05:40:38;;;;;;;17.67;6.90;;;-3.10;99.90;;;;;;4952520;28;20496;-74
2023/12/18 05:43:04;;;;;;;18.60;7.75;;;-3.20;99.90;;;;;;4953348;29;20138;-77
2023/12/18 05:45:34;;;;;;;18.73;8.45;;;-2.20;99.90;;;;;;4953563;28;20031;-77
2023/12/18 05:47:59;;;;;;;18.13;7.15;;;-3.20;99.90;;;;;;4952912;28;20038;-76
2023/12/18 05:50:26;;;;;;;22.83;7.45;;;-3.20;99.90;;;;;;4953162;28;20174;-76
2023/12/18 05:52:51;;;;;;;19.25;7.97;;;-3.10;99.90;;;;;;4965786;28;20079;-74
2023/12/18 05:55:17;;;;;;;15.00;6.93;;;-3.00;99.90;;;;;;4972554;28;20019;-76
2023/12/18 05:57:43;;;;;;;16.85;7.60;;;-2.20;99.90;;;;;;4972312;28;20054;-75
2023/12/18 06:00:09;;;;;;;13.77;6.80;;;-2.60;99.90;;;;;;4972181;28;20495;-76
2023/12/18 06:02:36;;;;;;;16.92;8.52;;;-3.30;99.90;;;;;;4971836;28;20030;-76
2023/12/18 06:05:02;;;;;;;20.45;8.65;;;-3.40;99.90;;;;;;4971795;28;20102;-74
2023/12/18 06:07:28;;;;;;;19.10;8.30;;;-3.40;99.90;;;;;;4971717;28;20101;-74
2023/12/18 06:09:54;;;;;;;18.73;7.40;;;-2.80;99.90;;;;;;4971961;28;20031;-77
2023/12/18 06:12:19;;;;;;;13.50;6.40;;;-3.30;99.90;;;;;;4971687;28;20027;-76
2023/12/18 06:14:45;;;;;;;12.80;6.80;;;-3.20;99.90;;;;;;4971796;28;20476;-76
2023/12/18 06:17:11;;;;;;;16.75;7.10;;;-3.40;99.90;;;;;;4972099;28;20133;-77
2023/12/18 06:19:37;;;;;;;15.45;6.68;;;-3.30;99.90;;;;;;4954092;28;20364;-74
2023/12/18 06:22:03;;;;;;;15.27;6.63;;;-3.30;99.90;;;;;;4955327;28;20097;-76
2023/12/18 06:24:29;;;;;;;15.15;6.30;;;-3.30;99.90;;;;;;4972071;28;20030;-75
2023/12/18 06:26:55;;;;;;;15.77;6.43;;;-3.40;99.90;;;;;;4971740;28;20042;-75
2023/12/18 06:29:26;;;;;;;17.50;6.88;;;-3.40;99.90;;;;;;4975035;28;20026;-77
2023/12/18 06:31:52;;;;;;;16.98;7.38;;;-3.50;99.90;;;;;;4972288;28;20027;-75
2023/12/18 06:34:18;;;;;;;16.40;7.85;;;-3.40;99.90;;;;;;4971497;28;20081;-76
2023/12/18 06:36:44;;;;;;;30.67;9.15;;;-3.30;99.90;;;;;;4953865;28;20023;-76
2023/12/18 06:39:10;;;;;;;14.43;6.30;;;-3.20;99.90;;;;;;4971163;28;20137;-76
2023/12/18 06:41:36;;;;;;;19.00;7.82;;;-3.10;99.90;;;;;;4971694;28;20031;-77
2023/12/18 06:44:02;;;;;;;16.35;7.22;;;-2.00;99.90;;;;;;4970896;28;20038;-75
2023/12/18 06:46:28;;;;;;;13.88;6.20;;;-3.20;99.90;;;;;;4971067;28;20019;-76
2023/12/18 06:48:55;;;;;;;14.20;7.07;;;-3.30;99.90;;;;;;4972089;28;20130;-76
2023/12/18 06:51:21;;;;;;;16.80;8.00;;;-3.30;99.90;;;;;;4975106;28;20094;-75
2023/12/18 06:53:47;;;;;;;16.15;7.82;;;-3.40;99.90;;;;;;4951891;28;20095;-76
2023/12/18 06:56:13;;;;;;;16.13;7.75;;;-3.20;99.90;;;;;;4935109;29;20027;-77
2023/12/18 06:58:39;;;;;;;13.55;6.25;;;-3.10;99.90;;;;;;4955684;28;20050;-77
2023/12/18 07:01:05;;;;;;;19.55;7.50;;;-3.10;99.90;;;;;;4953415;28;20047;-76
2023/12/18 07:03:30;;;;;;;14.70;6.65;;;-3.10;99.90;;;;;;4951449;28;20039;-76
2023/12/18 07:05:56;;;;;;;12.38;5.95;;;-3.10;99.90;;;;;;4951415;28;20019;-76
2023/12/18 07:08:22;;;;;;;12.57;6.78;;;-3.10;99.90;;;;;;4950196;29;20168;-77
2023/12/18 07:10:48;;;;;;;9.82;5.15;;;-3.20;99.90;;;;;;4937991;28;20031;-76
2023/12/18 07:13:15;;;;;;;18.48;8.23;;;-3.10;99.90;;;;;;4950848;28;20233;-77
2023/12/18 07:15:40;;;;;;;11.32;7.05;;;-2.40;99.90;;;;;;4950981;29;20023;-75
2023/12/18 07:18:07;;;;;;;13.68;7.38;;;-3.30;99.90;;;;;;4951100;28;20023;-74
2023/12/18 07:20:33;;;;;;;11.32;6.20;;;-2.30;99.90;;;;;;4951333;28;20028;-74
2023/12/18 07:22:59;;;;;;;12.63;6.40;;;-3.30;99.90;;;;;;4949528;28;20035;-74
2023/12/18 07:25:24;;;;;;;16.13;7.43;;;-3.30;99.90;;;;;;4949765;28;20538;-75
2023/12/18 07:27:50;;;;;;;12.95;7.40;;;-3.30;99.90;;;;;;4933078;29;20499;-74
2023/12/18 07:30:17;;;;;;;14.20;7.35;;;-1.60;99.90;;;;;;4933811;28;20498;-76
2023/12/18 07:32:43;;;;;;;11.85;6.55;;;-3.10;99.90;;;;;;4951278;28;20258;-77
2023/12/18 07:35:09;;;;;;;13.48;6.80;;;-1.90;99.90;;;;;;4951709;28;20318;-75
2023/12/18 07:37:34;;;;;;;18.98;6.75;;;-3.00;99.90;;;;;;4934087;29;20038;-74
2023/12/18 07:40:00;;;;;;;14.88;6.45;;;-3.00;99.90;;;;;;4949972;28;20059;-76
2023/12/18 07:42:26;;;;;;;12.80;6.05;;;-3.10;99.90;;;;;;4950285;28;20459;-75
2023/12/18 07:44:53;;;;;;;10.85;5.35;;;-3.10;99.90;;;;;;4933804;28;20030;-76
2023/12/18 07:47:19;;;;;;;14.52;6.32;;;-3.20;99.90;;;;;;4951103;28;20031;-77
2023/12/18 07:49:45;;;;;;;13.70;5.93;;;-3.20;99.90;;;;;;4951253;28;20027;-76
2023/12/18 07:52:11;;;;;;;10.98;6.47;;;-3.10;99.90;;;;;;4958858;28;20019;-77
2023/12/18 07:54:36;;;;;;;12.77;7.35;;;-3.10;99.90;;;;;;4970432;28;20486;-74
2023/12/18 07:57:02;;;;;;;12.88;5.50;;;-3.10;99.90;;;;;;4970462;28;20441;-77
2023/12/18 07:59:29;;;;;;;12.52;6.47;;;-3.10;99.90;;;;;;4970098;28;20055;-77
2023/12/18 08:01:54;;;;;;;16.23;6.43;;;-3.00;99.90;;;;;;4970338;28;20110;-75
2023/12/18 08:04:20;;;;;;;11.85;5.65;;;-3.00;99.90;;;;;;4970299;28;20424;-76
2023/12/18 08:06:52;;;;;;;12.93;6.15;;;-3.10;99.90;;;;;;4970056;28;20030;-75
2023/12/18 08:09:18;;;;;;;11.35;5.15;;;-3.10;99.90;;;;;;4970106;28;20019;-75
2023/12/18 08:11:44;;;;;;;11.52;6.07;;;-3.00;99.90;;;;;;4970438;28;20025;-78
2023/12/18 08:14:09;;;;;;;14.30;5.72;;;-2.90;99.90;;;;;;4980734;28;20054;-79
2023/12/18 08:16:35;;;;;;;15.90;7.07;;;-2.80;99.90;;;;;;4959111;28;20027;-81
2023/12/18 08:19:01;;;;;;;11.07;5.68;;;-2.70;99.90;;;;;;4974439;28;20034;-81
2023/12/18 08:21:27;;;;;;;13.27;6.35;;;-2.50;99.90;;;;;;4974539;28;20034;-77
2023/12/18 08:23:53;;;;;;;13.00;5.90;;;-2.40;99.90;;;;;;4977421;28;20034;-77
2023/12/18 08:26:19;;;;;;;15.02;5.63;;;-2.30;99.90;;;;;;4980317;28;20039;-75
2023/12/18 08:28:45;;;;;;;10.93;6.43;;;-2.30;99.90;;;;;;4981515;28;20034;-79
2023/12/18 08:31:12;;;;;;;12.25;6.05;;;-2.10;99.90;;;;;;4956629;28;20046;-76
2023/12/18 08:33:41;;;;;;;14.77;7.03;;;-2.10;99.90;;;;;;4970333;28;20023;-77
2023/12/18 08:36:07;;;;;;;17.83;6.78;;;-2.00;99.90;;;;;;4970242;28;20048;-78
2023/12/18 08:38:33;;;;;;;15.52;7.13;;;-1.90;99.90;;;;;;4952362;28;20252;-78
2023/12/18 08:40:59;;;;;;;15.55;7.13;;;-1.80;99.90;;;;;;4970010;28;20262;-77
2023/12/18 08:43:24;;;;;;;14.10;7.05;;;-1.80;99.90;;;;;;4970048;28;20039;-77
2023/12/18 08:45:50;;;;;;;15.35;6.28;;;-1.70;99.90;;;;;;4952984;28;20235;-77
2023/12/18 08:48:16;;;;;;;13.88;6.70;;;-0.80;99.90;;;;;;4970619;28;20030;-78
2023/12/18 08:50:42;;;;;;;11.43;5.85;;;-1.60;99.90;;;;;;4953150;28;20019;-78
2023/12/18 08:53:08;;;;;;;13.15;6.25;;;-1.50;99.90;;;;;;4955393;28;20031;-77
2023/12/18 08:55:38;;;;;;;14.73;6.72;;;-1.50;99.90;;;;;;4953749;28;20114;-77
2023/12/18 08:58:05;;;;;;;13.38;6.75;;;-1.40;99.90;;;;;;4954255;28;20563;-77
2023/12/18 09:00:31;;;;;;;16.50;6.38;;;-1.40;99.90;;;;;;4954704;28;20480;-76
2023/12/18 09:02:58;;;;;;;9.23;5.30;;;-1.30;99.90;;;;;;4965014;28;20046;-79
2023/12/18 09:05:33;;;;;;;13.85;7.18;;;-1.00;99.90;;;;;;4953293;29;20719;-80
2023/12/18 09:07:58;;;;;;;12.40;7.05;;;-1.10;99.90;;;;;;4967234;28;20166;-78
2023/12/18 09:10:24;;;;;;;21.40;8.80;;;-1.00;99.90;;;;;;4955338;28;20058;-79
2023/12/18 09:12:53;;;;;;;15.63;7.90;;;-0.90;99.90;;;;;;4936893;28;20559;-77
2023/12/18 09:15:19;;;;;;;15.15;8.00;;;-0.90;99.90;;;;;;4954084;28;20031;-78
2023/12/18 09:17:45;;;;;;;17.05;8.48;;;-0.80;99.90;;;;;;4954027;28;20037;-78
2023/12/18 09:20:20;;;;;;;13.02;7.63;;;-0.60;99.90;;;;;;4954421;28;20091;-80
2023/12/18 09:22:55;;;;;;;20.52;9.13;;;-0.60;99.90;;;;;;4936715;28;20035;-77
2023/12/18 09:25:25;;;;;;;16.73;8.82;;;-0.50;99.90;;;;;;4937367;28;20031;-75
2023/12/18 09:30:49;;;;;;;16.50;8.55;;;-0.40;99.90;;;;;;4925638;28;20035;-79
2023/12/18 09:33:31;;;;;;;16.67;8.65;;;-0.20;99.90;;;;;;4937240;29;20126;-76
2023/12/18 09:36:17;;;;;;;12.88;7.25;;;-0.10;99.90;;;;;;4953714;28;20034;-78
2023/12/18 09:39:07;;;;;;;15.75;6.53;;;0.00;99.90;;;;;;4953938;28;20472;-77
2023/12/18 09:41:45;;;;;;;22.25;9.70;;;0.10;99.90;;;;;;4955270;28;20020;-81
2023/12/18 09:47:55;;;;;;;15.85;7.97;;;0.20;99.90;;;;;;4896553;29;20055;-76
2023/12/18 09:50:59;;;;;;;;;;;0.20;99.90;;;;;;4903075;29;20131;-79
2023/12/18 09:57:56;;;;;;;21.05;8.98;;;0.40;99.90;;;;;;4783378;29;20044;-80
2023/12/18 10:00:43;;;;;;;17.75;9.23;;;0.50;99.90;;;;;;4764919;30;20377;-79
2023/12/18 10:03:08;;;;;;;16.67;8.75;;;0.60;99.90;;;;;;4771956;29;20047;-76
2023/12/18 10:05:43;;;;;;;19.83;7.95;;;0.60;99.90;;;;;;4800266;29;20045;-79
2023/12/18 10:08:21;;;;;;;21.58;9.10;;;0.70;99.90;;;;;;4852074;29;20041;-78
2023/12/18 10:10:47;;;;;;;14.00;8.15;;;0.80;99.90;;;;;;4884338;29;20071;-80
2023/12/18 10:13:43;;;;;;;18.83;8.20;;;0.90;99.90;;;;;;4909641;28;20480;-80
2023/12/18 10:19:18;;;;;;;15.77;9.77;;;1.00;99.90;;;;;;4952809;28;20122;-78
2023/12/18 10:21:44;;;;;;;18.40;9.95;;;1.10;99.90;;;;;;4952298;29;20046;-78
2023/12/18 10:24:16;;;;;;;24.58;10.05;;;1.30;99.90;;;;;;4934703;29;20043;-79
2023/12/18 10:27:00;;;;;;;17.45;8.60;;;1.30;99.90;;;;;;4952724;29;20031;-79
2023/12/18 10:29:35;;;;;;;16.27;8.63;;;1.40;99.90;;;;;;4952497;28;20038;-77
2023/12/18 10:32:28;;;;;;;21.88;8.82;;;1.50;99.90;;;;;;4952395;29;20051;-78
2023/12/18 10:35:01;;;;;;;18.30;9.70;;;1.60;99.90;;;;;;4952409;28;20582;-80
2023/12/18 10:37:53;;;;;;;18.75;9.00;;;1.70;99.90;;;;;;4952507;29;20104;-78
2023/12/18 10:40:20;;;;;;;20.85;9.63;;;1.80;99.90;;;;;;4951815;28;20027;-79
2023/12/18 10:43:15;;;;;;;22.35;10.10;;;2.00;99.90;;;;;;4951852;29;20118;-77
2023/12/18 10:45:46;;;;;;;18.73;8.23;;;2.10;99.90;;;;;;4926245;29;20392;-79
2023/12/18 10:48:13;;;;;;;20.17;9.32;;;2.40;99.90;;;;;;4952174;28;20031;-79
2023/12/18 10:50:41;;;;;;;19.15;8.20;;;2.10;99.90;;;;;;4934307;29;20121;-78
2023/12/18 10:53:11;;;;;;;15.30;7.85;;;1.80;99.90;;;;;;4949230;28;20129;-78
2023/12/18 10:55:38;;;;;;;13.82;7.82;;;2.20;99.90;;;;;;4970165;28;20562;-78
2023/12/18 10:58:05;;;;;;;18.13;9.63;;;2.20;99.90;;;;;;4953442;28;20038;-76
2023/12/18 11:00:32;;;;;;;17.58;8.43;;;2.30;99.90;;;;;;4970154;28;20074;-78
2023/12/18 11:02:59;;;;;;;19.50;9.63;;;1.60;99.90;;;;;;4970462;28;20383;-78
2023/12/18 11:05:29;;;;;;;17.58;8.73;;;2.50;99.90;;;;;;4970238;28;20034;-78
2023/12/18 11:07:56;;;;;;;;;;;2.40;99.90;;;;;;4971027;28;20180;-77
2023/12/18 11:10:21;;;;;;;17.85;9.25;;;2.50;99.90;;;;;;4970909;28;19910;-76
2023/12/18 11:12:53;;;;;;;14.48;7.72;;;2.60;99.90;;;;;;4970705;28;20133;-78
2023/12/18 11:15:39;;;;;;;16.70;10.50;;;2.70;99.90;;;;;;4953816;28;20391;-79
2023/12/18 11:18:37;;;;;;;15.88;8.23;;;2.70;99.90;;;;;;4952853;28;20027;-78
2023/12/18 11:21:03;;;;;;;18.83;9.05;;;2.80;99.90;;;;;;4970840;28;20118;-79
2023/12/18 11:23:38;;;;;;;18.85;9.55;;;2.90;99.90;;;;;;4952776;28;20039;-79
2023/12/18 11:26:05;;;;;;;17.50;9.02;;;2.90;99.90;;;;;;4970577;28;20022;-79
2023/12/18 11:28:31;;;;;;;18.20;8.80;;;3.10;99.90;;;;;;4968330;28;20130;-79
2023/12/18 11:31:00;;;;;;;19.40;9.50;;;3.20;99.90;;;;;;4950033;28;20027;-81
2023/12/18 11:33:26;;;;;;;20.95;9.38;;;3.40;99.90;;;;;;4934629;28;20027;-80
2023/12/18 11:35:52;;;;;;;23.38;9.32;;;3.40;99.90;;;;;;4952354;28;20518;-80
2023/12/18 11:38:21;;;;;;;17.83;8.95;;;3.40;99.90;;;;;;4970308;28;20018;-80
2023/12/18 11:40:48;;;;;;;;;;;3.50;99.90;;;;;;4970349;28;20023;-77
2023/12/18 11:43:41;;;;;;;16.90;8.23;;;3.50;99.90;;;;;;4970413;28;19921;-75
2023/12/18 11:46:13;;;;;;;19.10;10.38;;;3.60;99.90;;;;;;4953651;28;20121;-78
2023/12/18 11:48:40;;;;;;;17.80;8.65;;;3.80;99.90;;;;;;4953118;28;20031;-76
2023/12/18 11:51:06;;;;;;;16.33;8.70;;;3.80;99.90;;;;;;4971449;28;20015;-78
2023/12/18 11:53:36;;;;;;;16.98;9.00;;;3.80;99.90;;;;;;4934450;28;20110;-78
2023/12/18 11:56:12;;;;;;;14.70;7.95;;;3.90;99.90;;;;;;4934130;29;20197;-80
2023/12/18 11:58:41;;;;;;;18.23;8.85;;;4.00;99.90;;;;;;4933297;28;20344;-79
2023/12/18 12:01:07;;;;;;;15.88;8.05;;;4.10;99.90;;;;;;4933368;29;20080;-81
2023/12/18 12:03:33;;;;;;;14.95;7.93;;;4.10;99.90;;;;;;4950955;28;20070;-81
2023/12/18 12:06:00;;;;;;;18.20;9.70;;;4.20;99.90;;;;;;4934597;29;20034;-81
2023/12/18 12:08:26;;;;;;;16.33;8.32;;;4.30;99.90;;;;;;4936390;29;20075;-79
2023/12/18 12:10:51;;;;;;;14.98;8.55;;;4.40;99.90;;;;;;4936601;29;20069;-79
2023/12/18 12:13:19;;;;;;;13.43;8.07;;;4.50;99.90;;;;;;4935677;29;20078;-80
2023/12/18 12:15:58;;;;;;;14.82;8.07;;;4.60;99.90;;;;;;4952371;28;20034;-80
2023/12/18 12:18:28;;;;;;;13.80;7.95;;;4.60;99.90;;;;;;4933368;29;20042;-80
2023/12/18 12:20:55;;;;;;;15.10;8.25;;;4.70;99.90;;;;;;4932926;29;20039;-78
2023/12/18 12:23:21;;;;;;;13.18;7.68;;;4.90;99.90;;;;;;4933345;29;20304;-80
2023/12/18 12:25:49;;;;;;;14.57;7.18;;;4.90;99.90;;;;;;4934510;29;20543;-78
2023/12/18 12:28:25;;;;;;;12.27;7.10;;;4.90;99.90;;;;;;4933776;29;20039;-79
2023/12/18 12:31:39;;;;;;;;;;;;;;;;;;;;;
2023/12/18 12:34:11;;;;;;;15.25;6.75;;;5.00;99.90;;;;;;4936936;28;20047;-81
2023/12/18 12:36:49;;;;;;;14.48;8.10;;;5.10;99.90;;;;;;4955176;29;20038;-81
2023/12/18 12:39:17;;;;;;;14.93;7.55;;;5.20;99.90;;;;;;4954501;28;20039;-80
2023/12/18 12:41:54;;;;;;;13.17;6.93;;;5.30;99.90;;;;;;4937121;29;20125;-78
2023/12/18 12:44:20;;;;;;;11.20;6.65;;;5.40;99.90;;;;;;4936990;29;20095;-79
2023/12/18 12:47:15;;;;;;;13.93;7.32;;;5.40;99.90;;;;;;4954115;29;20031;-81
2023/12/18 12:49:48;;;;;;;13.27;7.00;;;5.40;99.90;;;;;;4937225;29;20027;-79
2023/12/18 12:52:15;;;;;;;11.98;6.95;;;5.60;99.90;;;;;;4943839;28;20034;-80
2023/12/18 12:54:43;;;;;;;16.17;7.78;;;5.60;99.90;;;;;;4955034;28;20023;-79
2023/12/18 12:57:10;;;;;;;12.85;7.55;;;5.70;99.90;;;;;;4956732;28;20030;-81